createdAt,value
2023-04-28T00:00:55.741Z,7.43
2023-04-28T00:03:22.338Z,6.53
2023-04-28T00:05:49.595Z,6.67
2023-04-28T00:08:16.220Z,7.67
2023-04-28T00:10:42.761Z,7.70
2023-04-28T00:13:09.237Z,8.00
2023-04-28T00:15:35.858Z,7.50
2023-04-28T00:18:02.370Z,7.40
2023-04-28T00:20:28.888Z,7.73
2023-04-28T00:22:55.301Z,7.70
2023-04-28T00:25:21.791Z,7.20
2023-04-28T00:27:48.255Z,7.40
2023-04-28T00:30:15.236Z,7.20
2023-04-28T00:32:41.878Z,6.50
2023-04-28T00:35:08.793Z,6.70
2023-04-28T00:37:38.995Z,7.40
2023-04-28T00:40:06.168Z,7.50
2023-04-28T00:42:32.665Z,7.17
2023-04-28T00:45:04.391Z,7.53
2023-04-28T00:47:31.394Z,7.20
2023-04-28T00:49:58.263Z,7.60
2023-04-28T00:52:24.920Z,6.87
2023-04-28T00:54:51.366Z,7.27
2023-04-28T00:57:17.904Z,7.63
2023-04-28T00:59:44.361Z,7.43
2023-04-28T01:02:17.255Z,7.80
2023-04-28T01:04:46.096Z,7.63
2023-04-28T01:07:13.014Z,7.57
2023-04-28T01:09:39.939Z,7.17
2023-04-28T01:12:06.877Z,8.50
2023-04-28T01:14:34.017Z,7.47
2023-04-28T01:17:01.898Z,7.20
2023-04-28T01:19:29.711Z,7.60
2023-04-28T01:21:56.748Z,7.90
2023-04-28T01:24:23.450Z,7.73
2023-04-28T01:26:50.552Z,7.53
2023-04-28T01:29:17.151Z,7.83
2023-04-28T01:31:43.665Z,8.00
2023-04-28T01:34:10.314Z,7.40
2023-04-28T01:36:37.795Z,7.77
2023-04-28T01:39:05.002Z,8.30
2023-04-28T01:41:34.356Z,8.57
2023-04-28T01:44:01.004Z,8.67
2023-04-28T01:46:27.680Z,7.50
2023-04-28T01:48:54.340Z,7.90
2023-04-28T01:51:20.997Z,8.93
2023-04-28T01:53:47.572Z,8.70
2023-04-28T01:56:14.146Z,7.83
2023-04-28T01:58:41.589Z,8.23
2023-04-28T02:01:08.180Z,9.67
2023-04-28T02:03:34.962Z,8.90
2023-04-28T02:06:01.760Z,9.27
2023-04-28T02:08:28.569Z,9.87
2023-04-28T02:10:55.187Z,10.27
2023-04-28T02:13:21.681Z,10.80
2023-04-28T02:15:48.263Z,9.90
2023-04-28T02:18:15.052Z,10.00
2023-04-28T02:20:41.967Z,9.60
2023-04-28T02:23:08.795Z,9.80
2023-04-28T02:25:36.035Z,9.33
2023-04-28T02:28:03.304Z,9.60
2023-04-28T02:30:29.838Z,9.57
2023-04-28T02:32:56.607Z,9.90
2023-04-28T02:35:23.431Z,9.70
2023-04-28T02:37:50.375Z,9.63
2023-04-28T02:40:17.809Z,10.60
2023-04-28T02:42:44.470Z,9.87
2023-04-28T02:45:11.965Z,10.50
2023-04-28T02:47:38.644Z,10.27
2023-04-28T02:50:06.654Z,10.70
2023-04-28T02:52:33.359Z,9.73
2023-04-28T02:55:00.059Z,10.20
2023-04-28T02:57:26.763Z,10.87
2023-04-28T02:59:53.525Z,10.10
2023-04-28T03:02:22.592Z,12.30
2023-04-28T03:04:49.523Z,12.10
2023-04-28T03:07:16.057Z,11.33
2023-04-28T03:09:42.660Z,10.50
2023-04-28T03:12:09.196Z,11.97
2023-04-28T03:14:36.804Z,11.83
2023-04-28T03:17:03.686Z,13.23
2023-04-28T03:19:30.756Z,11.07
2023-04-28T03:21:57.333Z,11.50
2023-04-28T03:24:26.031Z,12.60
2023-04-28T03:26:52.740Z,12.53
2023-04-28T03:29:19.621Z,12.70
2023-04-28T03:31:46.214Z,14.07
2023-04-28T03:34:13.379Z,12.23
2023-04-28T03:36:39.942Z,13.13
2023-04-28T03:39:06.525Z,14.50
2023-04-28T03:41:33.149Z,12.93
2023-04-28T03:43:59.761Z,12.87
2023-04-28T03:46:26.477Z,13.37
2023-04-28T03:48:53.635Z,14.73
2023-04-28T03:51:20.901Z,16.00
2023-04-28T03:53:47.600Z,14.63
2023-04-28T03:56:14.284Z,16.60
2023-04-28T03:58:41.200Z,16.70
2023-04-28T04:01:07.718Z,19.30
2023-04-28T04:03:34.456Z,18.87
2023-04-28T04:06:01.961Z,18.27
2023-04-28T04:08:28.604Z,18.67
2023-04-28T04:10:56.005Z,19.67
2023-04-28T04:13:22.884Z,19.30
2023-04-28T04:15:50.887Z,19.40
2023-04-28T04:18:18.887Z,19.30
2023-04-28T04:20:46.008Z,19.23
2023-04-28T04:23:12.608Z,18.60
2023-04-28T04:25:39.506Z,19.17
2023-04-28T04:28:06.171Z,19.30
2023-04-28T04:30:33.449Z,20.70
2023-04-28T04:33:00.056Z,19.63
2023-04-28T04:35:26.910Z,17.13
2023-04-28T04:37:53.615Z,16.83
2023-04-28T04:40:20.351Z,15.17
2023-04-28T04:42:46.878Z,15.87
2023-04-28T04:45:13.432Z,17.20
2023-04-28T04:47:40.754Z,17.83
2023-04-28T04:50:08.068Z,16.27
2023-04-28T04:52:34.732Z,15.37
2023-04-28T04:55:01.445Z,14.80
2023-04-28T04:57:28.042Z,15.23
2023-04-28T04:59:54.622Z,15.17
2023-04-28T05:02:21.202Z,14.70
2023-04-28T05:04:47.833Z,13.40
2023-04-28T05:07:14.490Z,12.30
2023-04-28T05:09:41.125Z,15.17
2023-04-28T05:12:08.117Z,14.80
2023-04-28T05:14:35.019Z,13.60
2023-04-28T05:17:01.767Z,13.33
2023-04-28T05:19:28.417Z,14.33
2023-04-28T05:21:55.154Z,13.50
2023-04-28T05:24:23.756Z,14.77
2023-04-28T05:26:51.678Z,12.90
2023-04-28T05:29:18.352Z,13.23
2023-04-28T05:31:44.911Z,14.20
2023-04-28T05:34:11.485Z,13.40
2023-04-28T05:36:38.377Z,13.93
2023-04-28T05:39:04.982Z,13.27
2023-04-28T05:41:31.690Z,13.87
2023-04-28T05:43:58.290Z,13.73
2023-04-28T05:46:30.611Z,16.60
2023-04-28T05:48:57.930Z,16.90
2023-04-28T05:51:24.541Z,13.90
2023-04-28T05:53:51.116Z,14.83
2023-04-28T05:56:18.214Z,14.97
2023-04-28T05:58:45.337Z,14.30
2023-04-28T06:01:11.971Z,14.77
2023-04-28T06:03:38.862Z,14.90
2023-04-28T06:06:09.771Z,14.70
2023-04-28T06:08:37.113Z,15.83
2023-04-28T06:11:03.956Z,15.77
2023-04-28T06:13:30.480Z,16.67
2023-04-28T06:15:57.161Z,14.10
2023-04-28T06:18:24.338Z,14.37
2023-04-28T06:20:51.516Z,15.23
2023-04-28T06:23:18.251Z,14.30
2023-04-28T06:25:44.942Z,13.57
2023-04-28T06:28:13.345Z,13.20
2023-04-28T06:30:39.918Z,12.30
2023-04-28T06:33:06.658Z,14.40
2023-04-28T06:35:38.997Z,12.23
2023-04-28T06:38:06.935Z,12.80
2023-04-28T06:40:33.478Z,13.10
2023-04-28T06:42:59.988Z,12.93
2023-04-28T06:45:26.623Z,13.50
2023-04-28T06:47:55.860Z,13.10
2023-04-28T06:50:23.954Z,12.50
2023-04-28T06:52:50.735Z,10.80
2023-04-28T06:55:17.602Z,11.83
2023-04-28T07:00:11.575Z,12.17
2023-04-28T07:02:38.421Z,12.70
2023-04-28T07:05:05.484Z,11.90
2023-04-28T07:07:32.610Z,12.90
2023-04-28T07:10:00.545Z,13.00
2023-04-28T07:12:27.400Z,12.30
2023-04-28T07:14:54.023Z,11.77
2023-04-28T07:17:20.534Z,12.70
2023-04-28T07:19:47.342Z,12.07
2023-04-28T07:22:13.908Z,11.57
2023-04-28T07:24:40.588Z,47.37
2023-04-28T07:27:07.189Z,20.13
2023-04-28T07:29:35.146Z,13.40
2023-04-28T07:32:04.158Z,11.83
2023-04-28T07:34:31.851Z,12.50
2023-04-28T07:36:59.588Z,11.90
2023-04-28T07:39:26.255Z,12.13
2023-04-28T07:41:52.958Z,12.27
2023-04-28T07:44:20.714Z,10.70
2023-04-28T07:46:47.418Z,10.87
2023-04-28T07:49:14.348Z,9.97
2023-04-28T07:51:40.902Z,10.20
2023-04-28T07:54:07.514Z,9.80
2023-04-28T07:56:35.163Z,9.50
2023-04-28T07:59:01.821Z,11.23
2023-04-28T08:01:28.408Z,9.00
2023-04-28T08:03:55.111Z,10.27
2023-04-28T08:06:22.212Z,8.97
2023-04-28T08:08:49.144Z,9.43
2023-04-28T08:11:15.853Z,9.90
2023-04-28T08:13:42.341Z,8.70
2023-04-28T08:16:09.033Z,8.63
2023-04-28T08:18:35.686Z,10.50
2023-04-28T08:21:02.331Z,9.57
2023-04-28T08:23:30.748Z,9.70
2023-04-28T08:25:57.915Z,9.50
2023-04-28T08:28:24.688Z,9.30
2023-04-28T08:30:51.414Z,9.47
2023-04-28T08:33:18.181Z,9.67
2023-04-28T08:35:45.070Z,7.93
2023-04-28T08:38:14.134Z,8.03
2023-04-28T08:40:42.836Z,9.27
2023-04-28T08:43:10.705Z,7.07
2023-04-28T08:45:43.007Z,8.53
2023-04-28T08:48:20.660Z,7.67
2023-04-28T08:50:52.934Z,8.57
2023-04-28T08:53:26.129Z,6.87
2023-04-28T08:55:56.435Z,8.07
2023-04-28T08:58:27.319Z,7.57
2023-04-28T09:00:54.570Z,7.97
2023-04-28T09:03:21.497Z,6.23
2023-04-28T09:05:49.093Z,7.67
2023-04-28T09:08:15.787Z,6.60
2023-04-28T09:10:42.506Z,7.30
2023-04-28T09:13:09.246Z,6.30
2023-04-28T09:15:38.201Z,6.60
2023-04-28T09:18:06.405Z,7.73
2023-04-28T09:20:34.703Z,7.10
2023-04-28T09:23:21.633Z,7.23
2023-04-28T09:26:07.520Z,6.97
2023-04-28T09:28:36.314Z,7.03
2023-04-28T09:31:04.011Z,6.70
2023-04-28T09:33:30.953Z,7.13
2023-04-28T09:35:57.609Z,7.63
2023-04-28T09:38:25.092Z,7.53
2023-04-28T09:40:53.818Z,7.40
2023-04-28T09:43:24.604Z,6.33
2023-04-28T09:45:51.846Z,7.27
2023-04-28T09:48:26.919Z,7.70
2023-04-28T09:50:55.379Z,7.27
2023-04-28T09:53:25.905Z,6.10
2023-04-28T09:55:54.448Z,6.10
2023-04-28T09:58:21.945Z,7.20
2023-04-28T10:00:57.257Z,6.37
2023-04-28T10:03:31.750Z,5.23
2023-04-28T10:05:59.201Z,5.23
2023-04-28T10:08:27.349Z,5.23
2023-04-28T10:10:54.849Z,5.67
2023-04-28T10:13:22.862Z,5.70
2023-04-28T10:15:50.392Z,5.83
2023-04-28T10:18:18.519Z,7.07
2023-04-28T10:20:48.483Z,6.27
2023-04-28T10:23:48.018Z,6.63
2023-04-28T10:26:18.366Z,5.97
2023-04-28T10:28:49.824Z,7.40
2023-04-28T10:31:21.449Z,6.83
2023-04-28T10:33:48.945Z,6.97
2023-04-28T10:36:52.893Z,6.93
2023-04-28T10:39:20.002Z,7.73
2023-04-28T10:41:47.879Z,7.77
2023-04-28T10:44:35.731Z,7.03
2023-04-28T10:47:03.946Z,7.23
2023-04-28T10:49:58.833Z,9.30
2023-04-28T10:52:35.334Z,7.53
2023-04-28T10:55:33.195Z,6.43
2023-04-28T10:58:15.178Z,6.97
2023-04-28T11:00:43.060Z,6.20
2023-04-28T11:03:10.085Z,6.50
2023-04-28T11:05:37.109Z,6.60
2023-04-28T11:08:18.973Z,6.73
2023-04-28T11:11:10.718Z,6.70
2023-04-28T11:13:37.583Z,5.97
2023-04-28T11:16:04.690Z,7.43
2023-04-28T11:18:55.162Z,6.70
2023-04-28T11:21:23.717Z,7.30
2023-04-28T11:23:51.639Z,6.30
2023-04-28T11:26:19.418Z,6.50
2023-04-28T11:28:51.556Z,6.80
2023-04-28T11:31:21.234Z,6.37
2023-04-28T11:33:57.369Z,5.90
2023-04-28T11:36:33.595Z,6.37
2023-04-28T11:39:02.617Z,5.50
2023-04-28T11:41:29.521Z,6.17
2023-04-28T11:43:56.384Z,6.60
2023-04-28T11:46:25.110Z,5.37
2023-04-28T11:49:02.991Z,6.50
2023-04-28T11:51:34.092Z,5.33
2023-04-28T11:54:01.980Z,6.37
2023-04-28T11:56:29.228Z,6.57
2023-04-28T11:59:09.577Z,5.90
2023-04-28T12:02:05.208Z,5.77
2023-04-28T12:04:40.327Z,7.33
2023-04-28T12:07:10.431Z,6.40
2023-04-28T12:10:01.278Z,6.43
2023-04-28T12:12:40.024Z,6.23
2023-04-28T12:15:08.450Z,8.03
2023-04-28T12:17:37.841Z,7.33
2023-04-28T12:20:06.966Z,7.00
2023-04-28T12:22:49.602Z,6.23
2023-04-28T12:25:19.323Z,5.03
2023-04-28T12:28:06.008Z,4.90
2023-04-28T12:30:42.456Z,5.70
2023-04-28T12:33:29.715Z,5.67
2023-04-28T12:35:57.537Z,6.17
2023-04-28T12:38:24.738Z,6.17
2023-04-28T12:40:51.719Z,6.67
2023-04-28T12:43:18.235Z,6.80
2023-04-28T12:45:44.965Z,7.20
2023-04-28T12:48:11.579Z,7.97
2023-04-28T12:50:38.138Z,8.20
2023-04-28T12:53:05.179Z,8.63
2023-04-28T12:55:31.963Z,8.23
2023-04-28T12:57:59.475Z,9.03
2023-04-28T13:00:26.427Z,9.17
2023-04-28T13:02:53.422Z,9.37
2023-04-28T13:05:20.081Z,10.13
2023-04-28T13:07:47.483Z,8.97
2023-04-28T13:10:14.030Z,8.60
2023-04-28T13:12:41.350Z,8.63
2023-04-28T13:15:08.602Z,9.27
2023-04-28T13:17:35.663Z,8.40
2023-04-28T13:20:05.232Z,7.80
2023-04-28T13:22:32.392Z,8.60
2023-04-28T13:24:59.248Z,8.77
2023-04-28T13:27:25.933Z,9.27
2023-04-28T13:29:52.838Z,9.57
2023-04-28T13:32:19.730Z,10.33
2023-04-28T13:34:47.048Z,11.50
2023-04-28T13:37:13.983Z,12.90
2023-04-28T13:39:40.895Z,13.00
2023-04-28T13:42:07.650Z,13.90
2023-04-28T13:44:34.918Z,13.70
2023-04-28T13:47:01.557Z,13.10
2023-04-28T13:49:28.822Z,12.37
2023-04-28T13:51:56.297Z,12.40
2023-04-28T13:54:23.032Z,11.60
2023-04-28T13:56:49.631Z,11.67
2023-04-28T13:59:16.190Z,13.07
2023-04-28T14:01:42.963Z,14.77
2023-04-28T14:04:09.724Z,13.83
2023-04-28T14:06:37.263Z,13.23
2023-04-28T14:09:04.072Z,12.90
2023-04-28T14:11:31.088Z,14.27
2023-04-28T14:13:57.647Z,14.00
2023-04-28T14:16:24.581Z,14.37
2023-04-28T14:18:51.806Z,15.40
2023-04-28T14:21:18.358Z,15.50
2023-04-28T14:23:44.984Z,16.37
2023-04-28T14:26:11.736Z,15.70
2023-04-28T14:28:38.592Z,15.43
2023-04-28T14:31:07.319Z,15.77
2023-04-28T14:33:34.293Z,14.80
2023-04-28T14:36:02.404Z,14.60
2023-04-28T14:38:30.591Z,14.97
2023-04-28T14:40:57.676Z,14.87
2023-04-28T14:43:24.756Z,15.07
2023-04-28T14:45:51.953Z,16.40
2023-04-28T14:48:18.793Z,17.20
2023-04-28T14:50:46.193Z,16.00
2023-04-28T14:53:12.879Z,16.63
2023-04-28T14:55:39.527Z,17.00
2023-04-28T14:58:06.091Z,14.77
2023-04-28T15:00:32.624Z,15.77
2023-04-28T15:02:59.417Z,15.10
2023-04-28T15:05:26.286Z,15.00
2023-04-28T15:07:52.974Z,15.47
2023-04-28T15:10:19.637Z,14.60
2023-04-28T15:12:48.350Z,14.60
2023-04-28T15:15:14.920Z,15.77
2023-04-28T15:17:41.476Z,14.53
2023-04-28T15:20:08.377Z,15.57
2023-04-28T15:22:36.450Z,14.00
2023-04-28T15:25:03.368Z,13.07
2023-04-28T15:27:29.891Z,12.80
2023-04-28T15:29:56.466Z,12.50
2023-04-28T15:32:23.487Z,12.07
2023-04-28T15:34:50.740Z,12.30
2023-04-28T15:37:43.404Z,13.30
2023-04-28T15:40:12.227Z,12.20
2023-04-28T15:42:49.483Z,12.43
2023-04-28T15:45:16.834Z,12.60
2023-04-28T15:47:43.989Z,13.57
2023-04-28T15:50:11.486Z,13.67
2023-04-28T15:52:40.642Z,12.47
2023-04-28T15:55:08.491Z,15.80
2023-04-28T15:57:36.615Z,18.27
2023-04-28T16:00:03.480Z,18.70
2023-04-28T16:02:32.445Z,21.10
2023-04-28T16:05:00.092Z,22.93
2023-04-28T16:07:27.230Z,23.50
2023-04-28T16:09:54.307Z,22.60
2023-04-28T16:12:21.233Z,19.20
2023-04-28T16:14:51.015Z,19.40
2023-04-28T16:17:17.869Z,18.70
2023-04-28T16:19:44.784Z,17.00
2023-04-28T16:22:11.546Z,15.80
2023-04-28T16:24:42.572Z,15.97
2023-04-28T16:27:12.908Z,16.57
2023-04-28T16:29:39.564Z,15.00
2023-04-28T16:32:06.738Z,12.97
2023-04-28T16:34:33.402Z,12.13
2023-04-28T16:37:00.418Z,12.00
2023-04-28T16:39:27.161Z,12.93
2023-04-28T16:41:53.659Z,12.30
2023-04-28T16:44:20.488Z,11.70
2023-04-28T16:46:47.815Z,13.40
2023-04-28T16:49:14.386Z,14.33
2023-04-28T16:51:41.076Z,13.40
2023-04-28T16:54:07.728Z,12.43
2023-04-28T16:56:38.880Z,11.60
2023-04-28T16:59:05.496Z,10.50
2023-04-28T17:01:32.018Z,10.40
2023-04-28T17:03:58.919Z,8.20
2023-04-28T17:06:26.142Z,8.33
2023-04-28T17:08:52.675Z,7.17
2023-04-28T17:11:19.319Z,6.57
2023-04-28T17:13:47.067Z,7.27
2023-04-28T17:16:13.761Z,6.97
2023-04-28T17:18:41.331Z,5.83
2023-04-28T17:21:07.988Z,5.37
2023-04-28T17:23:34.819Z,6.30
2023-04-28T17:26:03.318Z,6.17
2023-04-28T17:28:29.957Z,6.33
2023-04-28T17:30:56.533Z,5.93
2023-04-28T17:33:23.343Z,7.30
2023-04-28T17:35:50.098Z,7.00
2023-04-28T17:38:17.339Z,7.07
2023-04-28T17:40:48.560Z,6.27
2023-04-28T17:43:20.261Z,6.40
2023-04-28T17:45:46.874Z,6.07
2023-04-28T17:48:13.567Z,6.50
2023-04-28T17:50:40.193Z,5.50
2023-04-28T17:53:06.773Z,5.27
2023-04-28T17:55:33.473Z,5.50
2023-04-28T17:57:59.990Z,5.10
2023-04-28T18:00:26.711Z,4.37
2023-04-28T18:02:55.092Z,5.03
2023-04-28T18:05:24.242Z,5.50
2023-04-28T18:07:50.946Z,5.20
2023-04-28T18:10:18.086Z,6.00
2023-04-28T18:12:45.069Z,7.27
2023-04-28T18:15:12.250Z,7.50
2023-04-28T18:17:38.875Z,7.30
2023-04-28T18:20:07.023Z,7.90
2023-04-28T18:22:33.751Z,8.27
2023-04-28T18:25:00.663Z,7.93
2023-04-28T18:27:27.203Z,7.70
2023-04-28T18:29:54.192Z,7.00
2023-04-28T18:32:20.775Z,6.33
2023-04-28T18:34:47.606Z,6.10
2023-04-28T18:37:14.146Z,5.60
2023-04-28T18:39:41.206Z,6.53
2023-04-28T18:42:07.769Z,6.00
2023-04-28T18:44:34.731Z,6.10
2023-04-28T18:47:01.329Z,5.13
2023-04-28T18:49:27.847Z,6.77
2023-04-28T18:51:54.482Z,5.90
2023-04-28T18:54:21.410Z,6.40
2023-04-28T18:56:48.085Z,6.57
2023-04-28T18:59:14.759Z,7.27
2023-04-28T19:01:41.366Z,6.60
2023-04-28T19:04:08.345Z,6.73
2023-04-28T19:06:36.183Z,7.57
2023-04-28T19:09:02.998Z,7.67
2023-04-28T19:11:30.451Z,7.70
2023-04-28T19:13:57.972Z,8.60
2023-04-28T19:16:24.899Z,8.37
2023-04-28T19:18:52.085Z,7.83
2023-04-28T19:21:19.009Z,9.00
2023-04-28T19:23:45.587Z,9.20
2023-04-28T19:26:13.335Z,9.10
2023-04-28T19:28:39.950Z,9.90
2023-04-28T19:31:08.184Z,8.23
2023-04-28T19:33:34.848Z,9.80
2023-04-28T19:36:01.625Z,9.20
2023-04-28T19:38:28.609Z,9.50
2023-04-28T19:41:01.067Z,10.53
2023-04-28T19:43:28.122Z,9.73
2023-04-28T19:45:54.683Z,10.77
2023-04-28T19:48:21.552Z,9.47
2023-04-28T19:50:48.169Z,11.27
2023-04-28T19:53:14.928Z,13.30
2023-04-28T19:55:41.536Z,13.00
2023-04-28T19:58:10.059Z,14.80
2023-04-28T20:00:36.888Z,17.27
2023-04-28T20:03:04.028Z,15.93
2023-04-28T20:05:31.311Z,17.90
2023-04-28T20:07:58.020Z,17.83
2023-04-28T20:10:24.941Z,17.30
2023-04-28T20:12:51.653Z,19.50
2023-04-28T20:15:18.665Z,18.77
2023-04-28T20:17:45.907Z,20.40
2023-04-28T20:20:13.291Z,18.33
2023-04-28T20:22:41.014Z,19.20
2023-04-28T20:25:10.277Z,18.67
2023-04-28T20:27:36.964Z,17.67
2023-04-28T20:30:04.143Z,19.33
2023-04-28T20:32:31.083Z,17.73
2023-04-28T20:34:57.863Z,18.40
2023-04-28T20:37:26.309Z,18.37
2023-04-28T20:39:53.201Z,20.03
2023-04-28T20:42:20.004Z,18.00
2023-04-28T20:44:46.615Z,17.30
2023-04-28T20:47:13.551Z,20.60
2023-04-28T20:49:40.461Z,19.20
2023-04-28T20:52:07.025Z,18.90
2023-04-28T20:54:35.752Z,19.07
2023-04-28T20:57:04.429Z,19.20
2023-04-28T20:59:32.599Z,21.70
2023-04-28T21:02:00.153Z,22.50
2023-04-28T21:04:28.401Z,22.93
2023-04-28T21:06:55.618Z,24.60
2023-04-28T21:09:25.033Z,23.80
2023-04-28T21:11:52.571Z,24.40
2023-04-28T21:14:19.392Z,24.90
2023-04-28T21:16:46.216Z,24.57
2023-04-28T21:19:12.866Z,24.27
2023-04-28T21:21:39.627Z,24.70
2023-04-28T21:24:06.252Z,28.27
2023-04-28T21:26:33.126Z,29.00
2023-04-28T21:28:59.894Z,28.30
2023-04-28T21:31:26.569Z,25.77
2023-04-28T21:33:53.403Z,26.13
2023-04-28T21:36:20.043Z,24.57
2023-04-28T21:38:46.652Z,27.80
2023-04-28T21:41:13.354Z,25.40
2023-04-28T21:43:40.533Z,26.70
2023-04-28T21:46:07.150Z,28.30
2023-04-28T21:48:33.768Z,26.37
2023-04-28T21:51:01.337Z,27.83
2023-04-28T21:53:28.742Z,25.73
2023-04-28T21:55:55.536Z,26.20
2023-04-28T21:58:22.316Z,25.13
2023-04-28T22:00:49.099Z,26.60
2023-04-28T22:03:16.737Z,27.10
2023-04-28T22:05:46.785Z,25.67
2023-04-28T22:08:13.852Z,25.77
2023-04-28T22:10:40.614Z,25.93
2023-04-28T22:13:09.045Z,26.90
2023-04-28T22:15:35.722Z,26.27
2023-04-28T22:18:04.246Z,24.83
2023-04-28T22:20:32.072Z,26.20
2023-04-28T22:22:58.670Z,22.47
2023-04-28T22:25:25.272Z,23.43
2023-04-28T22:27:51.874Z,22.60
2023-04-28T22:30:18.512Z,21.20
2023-04-28T22:32:47.033Z,20.50
2023-04-28T22:35:13.987Z,18.70
2023-04-28T22:37:40.541Z,20.60
2023-04-28T22:40:08.431Z,18.73
2023-04-28T22:42:39.692Z,17.13
2023-04-28T22:45:06.872Z,18.50
2023-04-28T22:47:34.636Z,16.83
2023-04-28T22:50:03.989Z,17.40
2023-04-28T22:52:30.517Z,18.40
2023-04-28T22:54:57.483Z,17.93
2023-04-28T22:57:24.192Z,17.73
2023-04-28T22:59:51.125Z,17.97
2023-04-28T23:02:18.001Z,19.73
2023-04-28T23:04:44.824Z,18.17
2023-04-28T23:07:11.443Z,18.13
2023-04-28T23:09:38.121Z,20.03
2023-04-28T23:12:05.148Z,20.57
2023-04-28T23:14:32.361Z,24.23
2023-04-28T23:17:00.020Z,20.13
2023-04-28T23:19:26.553Z,19.83
2023-04-28T23:21:54.466Z,20.03
2023-04-28T23:24:21.087Z,21.60
2023-04-28T23:26:47.824Z,22.07
2023-04-28T23:29:14.589Z,20.73
2023-04-28T23:31:41.283Z,21.50
2023-04-28T23:34:08.379Z,20.13
2023-04-28T23:36:35.571Z,20.00
2023-04-28T23:39:02.471Z,19.80
2023-04-28T23:41:29.239Z,19.97
2023-04-28T23:43:56.676Z,19.50
2023-04-28T23:46:23.485Z,19.20
2023-04-28T23:48:50.722Z,20.30
2023-04-28T23:51:17.265Z,19.60
2023-04-28T23:53:44.155Z,19.37
2023-04-28T23:56:10.688Z,20.50
2023-04-28T23:58:38.573Z,22.03
